Terminal Aerodrome Forecast
Issued by NWS Bismarck, ND

Home | Current Version | Previous Version | Text Only | Print | Product List | Glossary On
Versions: 1 2 3 4 5 6 7 8 9 10 11 12 13 14 15 16 17 18
710
FTUS43 KBIS 072135 AAB
TAFBIS
TAF AMD
KBIS 072135Z 0722/0818 32034G46KT P6SM BKN035
     FM080500 32026G37KT P6SM BKN040
     FM080800 32023G32KT P6SM BKN020=

USA.gov is the U.S. government's official web portal to all federal, state and local government web resources and services.